DAL203 KLAS-KLAX
Flight info
| Callsign | DAL203 |
|---|---|
| Flight time | N/A |
| Altitude | 28000 |
| Route | RADYR2 BLAQQ SHTNR ANJLL4 |
| Aircraft | L101/H-SDFGHIRWXY/S |
Departure
| Time | 2026-05-06 23:05 |
|---|---|
| Airport | Harry Reid International Airport (KLAS) |
Arrival
| Time | N/A |
|---|---|
| Airport | Los Angeles International Airport (KLAX) |
| Time | Latitude | Longitude | Altitude | Speed | Heading |
|---|---|---|---|---|---|
| 2026-05-06 22:04 | 36.08546 | -115.15497 | 2139 ft | 0 kts | 106° |
| 2026-05-06 22:43 | 36.08549 | -115.15508 | 2125 ft | 3 kts | 105° |
| 2026-05-06 22:43 | 36.08555 | -115.15541 | 2122 ft | 3 kts | 99° |
| 2026-05-06 22:43 | 36.08558 | -115.15574 | 2122 ft | 4 kts | 86° |
| 2026-05-06 22:44 | 36.08552 | -115.15604 | 2124 ft | 3 kts | 48° |
| 2026-05-06 22:44 | 36.08545 | -115.15612 | 2125 ft | 5 kts | 26° |
| 2026-05-06 22:55 | 36.08558 | -115.15604 | 2125 ft | 6 kts | 26° |
| 2026-05-06 22:56 | 36.08608 | -115.15616 | 2122 ft | 9 kts | 301° |
| 2026-05-06 22:56 | 36.08597 | -115.15657 | 2123 ft | 7 kts | 212° |
| 2026-05-06 22:56 | 36.08548 | -115.15664 | 2125 ft | 7 kts | 184° |
| 2026-05-06 22:56 | 36.08496 | -115.15666 | 2127 ft | 8 kts | 180° |
| 2026-05-06 22:57 | 36.08436 | -115.15649 | 2129 ft | 10 kts | 156° |
| 2026-05-06 22:57 | 36.08360 | -115.15606 | 2130 ft | 14 kts | 154° |
| 2026-05-06 22:57 | 36.08260 | -115.15549 | 2129 ft | 17 kts | 153° |
| 2026-05-06 22:57 | 36.08153 | -115.15483 | 2136 ft | 16 kts | 159° |
| 2026-05-06 22:58 | 36.08048 | -115.15427 | 2138 ft | 17 kts | 156° |
| 2026-05-06 22:58 | 36.07938 | -115.15364 | 2139 ft | 18 kts | 155° |
| 2026-05-06 22:58 | 36.07884 | -115.15325 | 2142 ft | 5 kts | 122° |
| 2026-05-06 22:58 | 36.07881 | -115.15256 | 2140 ft | 12 kts | 89° |
| 2026-05-06 22:59 | 36.07878 | -115.15114 | 2134 ft | 20 kts | 92° |
| 2026-05-06 22:59 | 36.07868 | -115.14920 | 2128 ft | 26 kts | 94° |
| 2026-05-06 22:59 | 36.07853 | -115.14689 | 2116 ft | 32 kts | 97° |
| 2026-05-06 22:59 | 36.07836 | -115.14449 | 2110 ft | 23 kts | 94° |
| 2026-05-06 23:00 | 36.07828 | -115.14238 | 2103 ft | 19 kts | 90° |
| 2026-05-06 23:00 | 36.07828 | -115.14056 | 2098 ft | 23 kts | 90° |
| 2026-05-06 23:00 | 36.07827 | -115.13855 | 2098 ft | 24 kts | 90° |
| 2026-05-06 23:00 | 36.07828 | -115.13624 | 2092 ft | 29 kts | 90° |
| 2026-05-06 23:01 | 36.07827 | -115.13365 | 2086 ft | 32 kts | 90° |
| 2026-05-06 23:01 | 36.07825 | -115.13092 | 2072 ft | 30 kts | 90° |
| 2026-05-06 23:01 | 36.07827 | -115.12814 | 2062 ft | 35 kts | 90° |
| 2026-05-06 23:01 | 36.07828 | -115.12537 | 2054 ft | 21 kts | 90° |
| 2026-05-06 23:02 | 36.07829 | -115.12384 | 2077 ft | 20 kts | 89° |
| 2026-05-06 23:02 | 36.07808 | -115.12233 | 2048 ft | 12 kts | 126° |
| 2026-05-06 23:02 | 36.07773 | -115.12179 | 2048 ft | 3 kts | 129° |
| 2026-05-06 23:02 | 36.07766 | -115.12169 | 2047 ft | 4 kts | 129° |
| 2026-05-06 23:03 | 36.07738 | -115.12134 | 2049 ft | 8 kts | 143° |
| 2026-05-06 23:03 | 36.07685 | -115.12118 | 2049 ft | 8 kts | 182° |
| 2026-05-06 23:03 | 36.07647 | -115.12146 | 2049 ft | 6 kts | 243° |
| 2026-05-06 23:03 | 36.07641 | -115.12203 | 2052 ft | 8 kts | 273° |
| 2026-05-06 23:04 | 36.07642 | -115.12234 | 2053 ft | 1 kts | 270° |
| 2026-05-06 23:04 | 36.07641 | -115.12289 | 2053 ft | 17 kts | 269° |
| 2026-05-06 23:04 | 36.07640 | -115.12728 | 2063 ft | 94 kts | 269° |
| 2026-05-06 23:04 | 36.07636 | -115.13900 | 2129 ft | 172 kts | 269° |
| 2026-05-06 23:05 | 36.07642 | -115.15402 | 3184 ft | 175 kts | 270° |